Aiea, Hawaii
Current Conditions -  °F | °C
As of 9:53 AM on Monday 24 Nov 2014 (Local Time) from PHNL Reporting Station
Broken Clouds Broken Clouds  
Wind Chill: 75°   Ceiling: 4800
Heat Index: 75°   Visibility: 10mi
Dew Point: 65°   Wind: 14mph
Humidity: 71%   Direction: 350°N
Pressure: 29.93"   Gusts: 20mph
Location:  21.38°N, 157.93°W
Report Text: PHNL 241953Z 35012G17KT 10SM FEW025 BKN048 BKN080 24/18 A2993 RMK AO2 SLP136 T02390183
Loading
Personal Weather Stations






























Interactive Weather Map New forecast layout! Learn more

10-Day Weather Forecast

Advertisements
Track Severe Weather on mobile